Weather reports worldwide

Advertisment
Glen Ogle, United Kingdom (3148): temperature & dewpoint: 20.05.2019 01:00:00 - 26.05.2019 01:00:00 (BST)Glen Ogle, United Kingdom (3148): wind speed & gusts: 20.05.2019 01:00:00 - 26.05.2019 01:00:00 (BST)Glen Ogle, United Kingdom (3148): wind direction: 20.05.2019 01:00:00 - 26.05.2019 01:00:00 (BST)
Date & Time tt [°C] td [°C] ff [km/h] ff [kn] fx [km/h] fx [kn] dd
26.05.2019 01:00:00 - - - - - - -
26.05.2019 00:00:00 8,9 8,9 24 13 - - W
25.05.2019 23:00:00 8,9 8,9 24 13 - - W
25.05.2019 22:00:00 9,0 9,0 29 16 - - W
25.05.2019 21:00:00 9,1 9,0 24 13 - - W
25.05.2019 20:00:00 8,9 8,9 24 13 - - W
25.05.2019 19:00:00 8,7 8,6 11 6 - - W
25.05.2019 18:00:00 8,2 7,7 13 7 - - SW
25.05.2019 17:00:00 7,7 7,4 11 6 - - S
25.05.2019 16:00:00 7,4 7,1 16 9 - - S
25.05.2019 15:00:00 7,2 6,5 9 5 - - WSW
25.05.2019 14:00:00 6,4 5,1 11 6 - - W
25.05.2019 13:00:00 6,3 4,7 15 8 - - W
25.05.2019 12:00:00 7,5 1,8 9 5 - - W
25.05.2019 11:00:00 6,8 1,5 5 3 - - NW
25.05.2019 10:00:00 5,7 2,5 13 7 - - W
25.05.2019 09:00:00 5,2 0,6 11 6 - - WNW
25.05.2019 08:00:00 4,7 1,8 8 4 - - W
25.05.2019 07:00:00 4,5 2,7 15 8 - - WNW
25.05.2019 06:00:00 3,9 3,0 13 7 - - WNW
25.05.2019 05:00:00 4,4 3,0 9 5 - - NW
25.05.2019 04:00:00 4,7 2,9 11 6 - - WNW
25.05.2019 03:00:00 4,9 3,5 9 5 - - WNW
25.05.2019 02:00:00 5,2 3,6 9 5 - - NW
25.05.2019 01:00:00 5,4 4,1 5 3 - - NNE
25.05.2019 00:00:00 5,3 3,9 13 7 - - NW
24.05.2019 23:00:00 6,5 4,3 11 6 - - WNW
24.05.2019 22:00:00 7,3 3,8 15 8 - - NW
24.05.2019 21:00:00 8,4 3,1 26 14 - - NNW
24.05.2019 20:00:00 8,9 2,7 26 14 - - NW
24.05.2019 19:00:00 9,1 1,7 28 15 - - WNW
24.05.2019 18:00:00 10,4 1,9 29 16 - - WNW
24.05.2019 17:00:00 11,5 2,9 31 17 48 26 W
24.05.2019 16:00:00 9,9 2,1 31 17 - - W
24.05.2019 15:00:00 10,4 2,5 29 16 - - W
24.05.2019 14:00:00 8,8 1,5 28 15 - - W
24.05.2019 13:00:00 9,0 3,1 29 16 - - W
24.05.2019 12:00:00 7,8 2,4 31 17 48 26 W
24.05.2019 11:00:00 6,7 1,9 35 19 46 25 WNW
24.05.2019 10:00:00 5,8 3,5 31 17 - - WNW
24.05.2019 09:00:00 5,3 3,6 24 13 - - WNW
24.05.2019 08:00:00 4,4 3,9 29 16 46 25 W
24.05.2019 07:00:00 4,2 3,8 28 15 - - W
24.05.2019 06:00:00 4,1 3,9 24 13 - - W
24.05.2019 05:00:00 4,1 3,9 21 11 48 26 W
24.05.2019 04:00:00 4,3 3,9 39 21 55 30 WNW
24.05.2019 03:00:00 4,4 4,0 39 21 55 30 WNW
24.05.2019 02:00:00 4,4 3,9 31 17 52 28 W
24.05.2019 01:00:00 4,5 3,6 41 22 57 31 W
24.05.2019 00:00:00 4,4 3,8 28 15 - - W
23.05.2019 23:00:00 4,7 3,9 34 18 61 33 W
23.05.2019 22:00:00 5,6 4,2 50 27 72 39 WNW
23.05.2019 21:00:00 6,1 3,8 44 24 65 35 WNW
23.05.2019 20:00:00 6,4 4,4 42 23 61 33 WNW
23.05.2019 19:00:00 7,0 4,3 48 26 61 33 W
23.05.2019 18:00:00 7,4 3,8 41 22 59 32 W
23.05.2019 17:00:00 7,4 3,5 48 26 65 35 W
23.05.2019 16:00:00 7,3 3,5 44 24 63 34 W
23.05.2019 15:00:00 7,7 4,6 44 24 63 34 W
23.05.2019 14:00:00 7,6 4,6 41 22 59 32 W
23.05.2019 13:00:00 7,7 4,1 46 25 67 36 W
23.05.2019 12:00:00 7,7 4,3 42 23 65 35 W
23.05.2019 11:00:00 6,7 4,2 41 22 55 30 W
23.05.2019 10:00:00 6,5 4,5 22 12 50 27 WNW
23.05.2019 09:00:00 6,0 4,7 28 15 46 25 W
23.05.2019 08:00:00 5,8 4,1 34 18 46 25 W
23.05.2019 07:00:00 5,5 4,6 34 18 46 25 W
23.05.2019 06:00:00 5,3 4,7 34 18 46 25 W
23.05.2019 05:00:00 5,3 5,1 35 19 - - W
23.05.2019 04:00:00 5,2 5,0 31 17 - - W
23.05.2019 03:00:00 5,3 5,0 37 20 54 29 W
23.05.2019 02:00:00 5,2 4,9 31 17 - - W
23.05.2019 01:00:00 5,3 4,5 28 15 - - W
23.05.2019 00:00:00 5,2 4,1 22 12 46 25 W
22.05.2019 23:00:00 5,3 3,9 26 14 - - W
22.05.2019 22:00:00 6,0 3,6 28 15 46 25 W
22.05.2019 21:00:00 6,3 4,0 35 19 52 28 W
22.05.2019 20:00:00 7,0 3,7 34 18 48 26 W
22.05.2019 19:00:00 7,6 4,2 29 16 54 29 WNW
22.05.2019 18:00:00 7,7 4,0 39 21 52 28 W
22.05.2019 17:00:00 8,3 3,7 35 19 50 27 W
22.05.2019 16:00:00 8,8 3,0 34 18 46 25 W
22.05.2019 15:00:00 7,6 3,3 28 15 - - W
22.05.2019 14:00:00 7,7 3,8 22 12 - - W
22.05.2019 13:00:00 7,6 3,1 16 9 - - W
22.05.2019 12:00:00 7,2 3,4 34 18 46 25 WNW
22.05.2019 11:00:00 6,1 4,1 28 15 - - WNW
22.05.2019 10:00:00 5,5 4,0 29 16 - - WNW
22.05.2019 09:00:00 4,7 3,4 29 16 - - WNW
22.05.2019 08:00:00 4,5 0,5 29 16 - - WNW
22.05.2019 07:00:00 3,3 2,2 26 14 - - WNW
22.05.2019 06:00:00 3,4 3,3 24 13 - - WNW
22.05.2019 05:00:00 2,5 2,4 22 12 - - W
22.05.2019 04:00:00 2,9 2,4 11 6 - - WNW
22.05.2019 03:00:00 3,8 2,6 11 6 - - WNW
22.05.2019 02:00:00 4,5 2,3 11 6 - - NW
22.05.2019 01:00:00 5,2 2,3 15 8 - - NNW
22.05.2019 00:00:00 5,2 2,4 15 8 - - NW
21.05.2019 23:00:00 5,9 2,2 21 11 - - WNW
21.05.2019 22:00:00 5,9 1,8 16 9 - - NW
21.05.2019 21:00:00 7,4 0,3 26 14 - - W
21.05.2019 20:00:00 8,6 -0,3 29 16 - - WNW
21.05.2019 19:00:00 9,8 -0,3 31 17 - - WNW
21.05.2019 18:00:00 10,3 0,5 31 17 - - NW
21.05.2019 17:00:00 10,6 -0,5 28 15 - - WNW
21.05.2019 16:00:00 10,3 -0,4 16 9 - - W
21.05.2019 15:00:00 8,5 -0,5 24 13 - - NW
21.05.2019 14:00:00 9,3 0,3 15 8 - - N
21.05.2019 13:00:00 8,4 1,4 21 11 - - N
21.05.2019 12:00:00 8,1 2,1 21 11 - - NNW
21.05.2019 11:00:00 7,7 1,8 21 11 - - NW
21.05.2019 10:00:00 7,8 -1,6 13 7 - - NNW
21.05.2019 09:00:00 6,8 -1,0 15 8 - - NW
21.05.2019 08:00:00 5,5 1,4 9 5 - - NW
21.05.2019 07:00:00 5,4 4,1 11 6 - - NW
21.05.2019 06:00:00 5,5 5,5 8 4 - - NW
21.05.2019 05:00:00 5,8 5,8 15 8 - - WNW
21.05.2019 04:00:00 5,9 5,9 16 9 - - WNW
21.05.2019 03:00:00 6,0 5,9 13 7 - - NNW
21.05.2019 02:00:00 6,4 6,0 11 6 - - NW
21.05.2019 01:00:00 6,9 5,8 16 9 - - NNW
21.05.2019 00:00:00 7,1 6,0 8 4 - - N
20.05.2019 23:00:00 7,2 5,7 16 9 - - NNW
20.05.2019 22:00:00 7,3 6,7 21 11 - - NNW
20.05.2019 21:00:00 7,4 6,7 18 10 - - N
20.05.2019 20:00:00 8,0 6,5 11 6 - - WNW
20.05.2019 19:00:00 8,2 6,6 15 8 - - WNW
20.05.2019 18:00:00 8,4 6,4 16 9 - - W
20.05.2019 17:00:00 8,2 6,6 21 11 - - W
20.05.2019 16:00:00 8,1 6,9 22 12 - - W
20.05.2019 15:00:00 8,9 5,2 24 13 - - W
20.05.2019 14:00:00 8,6 5,7 24 13 - - W
20.05.2019 13:00:00 9,7 1,4 16 9 - - W
20.05.2019 12:00:00 9,0 2,1 16 9 - - W
20.05.2019 11:00:00 8,3 3,3 13 7 - - W
20.05.2019 10:00:00 7,0 5,8 16 9 - - W
20.05.2019 09:00:00 6,7 6,7 16 9 - - WNW
20.05.2019 08:00:00 6,6 6,6 16 9 - - WNW
20.05.2019 07:00:00 6,4 6,4 13 7 - - WNW
20.05.2019 06:00:00 6,5 6,5 11 6 - - WNW
20.05.2019 05:00:00 6,4 6,4 4 2 - - NNW
20.05.2019 04:00:00 6,4 6,4 11 6 - - WNW
20.05.2019 03:00:00 6,4 6,4 15 8 - - WNW
20.05.2019 02:00:00 6,4 6,4 13 7 - - WNW
20.05.2019 01:00:00 6,5 6,5 13 7 - - WNW

tt = temperature
td = dewpoint
ff = wind speed
fx = gusts
dd = wind direction

Next stations